sensor_id;sensor_type;location;lat;lon;timestamp;P1;durP1;ratioP1;P2;durP2;ratioP2
43337;SDS011;28933;52.492;13.434;2024-03-08T00:00:28;29.58;;;15.52;;
43337;SDS011;28933;52.492;13.434;2024-03-08T00:03:13;22.08;;;14.52;;
43337;SDS011;28933;52.492;13.434;2024-03-08T00:05:59;22.92;;;15.00;;
43337;SDS011;28933;52.492;13.434;2024-03-08T00:08:45;24.70;;;14.77;;
43337;SDS011;28933;52.492;13.434;2024-03-08T00:11:31;22.67;;;15.13;;
43337;SDS011;28933;52.492;13.434;2024-03-08T00:14:17;26.77;;;15.98;;
43337;SDS011;28933;52.492;13.434;2024-03-08T00:17:03;24.38;;;15.90;;
43337;SDS011;28933;52.492;13.434;2024-03-08T00:19:49;24.40;;;14.65;;
43337;SDS011;28933;52.492;13.434;2024-03-08T00:22:35;25.92;;;14.50;;
43337;SDS011;28933;52.492;13.434;2024-03-08T00:25:24;23.90;;;14.45;;
43337;SDS011;28933;52.492;13.434;2024-03-08T00:28:10;22.98;;;14.00;;
43337;SDS011;28933;52.492;13.434;2024-03-08T00:31:00;26.65;;;15.43;;
43337;SDS011;28933;52.492;13.434;2024-03-08T00:33:46;25.92;;;14.75;;
43337;SDS011;28933;52.492;13.434;2024-03-08T00:36:32;26.73;;;16.10;;
43337;SDS011;28933;52.492;13.434;2024-03-08T00:39:18;24.02;;;15.15;;
43337;SDS011;28933;52.492;13.434;2024-03-08T00:42:08;23.60;;;13.73;;
43337;SDS011;28933;52.492;13.434;2024-03-08T00:44:55;28.08;;;16.60;;
43337;SDS011;28933;52.492;13.434;2024-03-08T00:47:41;24.60;;;15.70;;
43337;SDS011;28933;52.492;13.434;2024-03-08T00:50:29;24.55;;;15.27;;
43337;SDS011;28933;52.492;13.434;2024-03-08T00:53:15;22.70;;;15.02;;
43337;SDS011;28933;52.492;13.434;2024-03-08T00:56:01;25.48;;;15.48;;
43337;SDS011;28933;52.492;13.434;2024-03-08T00:58:47;25.00;;;14.65;;
43337;SDS011;28933;52.492;13.434;2024-03-08T01:01:33;27.52;;;14.90;;
43337;SDS011;28933;52.492;13.434;2024-03-08T01:04:20;26.00;;;15.18;;
43337;SDS011;28933;52.492;13.434;2024-03-08T01:07:06;25.55;;;15.73;;
43337;SDS011;28933;52.492;13.434;2024-03-08T01:09:52;26.55;;;17.42;;
43337;SDS011;28933;52.492;13.434;2024-03-08T01:12:38;26.13;;;14.63;;
43337;SDS011;28933;52.492;13.434;2024-03-08T01:15:25;23.00;;;14.27;;
43337;SDS011;28933;52.492;13.434;2024-03-08T01:18:11;26.73;;;14.88;;
43337;SDS011;28933;52.492;13.434;2024-03-08T01:20:58;23.98;;;15.73;;
43337;SDS011;28933;52.492;13.434;2024-03-08T01:23:44;23.83;;;15.90;;
43337;SDS011;28933;52.492;13.434;2024-03-08T01:26:30;30.13;;;16.10;;
43337;SDS011;28933;52.492;13.434;2024-03-08T01:29:16;22.40;;;14.75;;
43337;SDS011;28933;52.492;13.434;2024-03-08T01:32:02;24.15;;;15.30;;
43337;SDS011;28933;52.492;13.434;2024-03-08T01:34:48;26.65;;;15.95;;
43337;SDS011;28933;52.492;13.434;2024-03-08T01:37:34;23.08;;;14.57;;
43337;SDS011;28933;52.492;13.434;2024-03-08T01:40:20;24.38;;;14.75;;
43337;SDS011;28933;52.492;13.434;2024-03-08T01:46:21;26.67;;;15.70;;
43337;SDS011;28933;52.492;13.434;2024-03-08T01:49:07;29.27;;;17.48;;
43337;SDS011;28933;52.492;13.434;2024-03-08T01:51:53;27.30;;;15.40;;
43337;SDS011;28933;52.492;13.434;2024-03-08T01:54:41;29.30;;;16.95;;
43337;SDS011;28933;52.492;13.434;2024-03-08T01:57:28;25.35;;;16.02;;
43337;SDS011;28933;52.492;13.434;2024-03-08T02:00:16;26.33;;;16.10;;
43337;SDS011;28933;52.492;13.434;2024-03-08T02:03:03;24.48;;;16.38;;
43337;SDS011;28933;52.492;13.434;2024-03-08T02:05:49;22.77;;;14.20;;
43337;SDS011;28933;52.492;13.434;2024-03-08T02:08:37;28.15;;;15.40;;
43337;SDS011;28933;52.492;13.434;2024-03-08T02:11:23;24.02;;;14.35;;
43337;SDS011;28933;52.492;13.434;2024-03-08T02:14:09;26.20;;;15.07;;
43337;SDS011;28933;52.492;13.434;2024-03-08T02:17:00;24.20;;;14.95;;
43337;SDS011;28933;52.492;13.434;2024-03-08T02:19:46;25.88;;;15.50;;
43337;SDS011;28933;52.492;13.434;2024-03-08T02:22:33;25.00;;;15.90;;
43337;SDS011;28933;52.492;13.434;2024-03-08T02:25:19;25.17;;;15.98;;
43337;SDS011;28933;52.492;13.434;2024-03-08T02:28:05;30.70;;;16.25;;
43337;SDS011;28933;52.492;13.434;2024-03-08T02:30:51;25.33;;;15.77;;
43337;SDS011;28933;52.492;13.434;2024-03-08T02:33:41;22.73;;;14.75;;
43337;SDS011;28933;52.492;13.434;2024-03-08T02:36:26;26.80;;;15.15;;
43337;SDS011;28933;52.492;13.434;2024-03-08T02:39:12;22.40;;;15.27;;
43337;SDS011;28933;52.492;13.434;2024-03-08T02:41:58;27.92;;;15.63;;
43337;SDS011;28933;52.492;13.434;2024-03-08T02:44:44;25.35;;;15.02;;
43337;SDS011;28933;52.492;13.434;2024-03-08T02:47:30;27.60;;;14.73;;
43337;SDS011;28933;52.492;13.434;2024-03-08T02:50:16;25.08;;;14.40;;
43337;SDS011;28933;52.492;13.434;2024-03-08T02:53:03;24.30;;;16.00;;
43337;SDS011;28933;52.492;13.434;2024-03-08T02:55:49;26.00;;;15.10;;
43337;SDS011;28933;52.492;13.434;2024-03-08T02:58:35;22.50;;;14.50;;
43337;SDS011;28933;52.492;13.434;2024-03-08T03:01:21;22.83;;;14.65;;
43337;SDS011;28933;52.492;13.434;2024-03-08T03:04:08;27.73;;;15.48;;
43337;SDS011;28933;52.492;13.434;2024-03-08T03:06:54;25.83;;;15.25;;
43337;SDS011;28933;52.492;13.434;2024-03-08T03:09:40;23.20;;;14.57;;
43337;SDS011;28933;52.492;13.434;2024-03-08T03:12:29;24.23;;;15.48;;
43337;SDS011;28933;52.492;13.434;2024-03-08T03:15:16;24.92;;;15.18;;
43337;SDS011;28933;52.492;13.434;2024-03-08T03:18:02;27.60;;;15.63;;
43337;SDS011;28933;52.492;13.434;2024-03-08T03:20:49;23.85;;;15.57;;
43337;SDS011;28933;52.492;13.434;2024-03-08T03:23:35;25.27;;;14.57;;
43337;SDS011;28933;52.492;13.434;2024-03-08T03:26:22;28.73;;;16.15;;
43337;SDS011;28933;52.492;13.434;2024-03-08T03:29:08;28.48;;;17.30;;
43337;SDS011;28933;52.492;13.434;2024-03-08T03:31:54;25.58;;;16.30;;
43337;SDS011;28933;52.492;13.434;2024-03-08T03:34:40;25.73;;;15.27;;
43337;SDS011;28933;52.492;13.434;2024-03-08T03:37:26;24.98;;;14.43;;
43337;SDS011;28933;52.492;13.434;2024-03-08T03:40:12;25.45;;;15.15;;
43337;SDS011;28933;52.492;13.434;2024-03-08T03:42:58;29.40;;;17.75;;
43337;SDS011;28933;52.492;13.434;2024-03-08T03:45:44;27.00;;;15.18;;
43337;SDS011;28933;52.492;13.434;2024-03-08T03:48:30;27.63;;;16.77;;
43337;SDS011;28933;52.492;13.434;2024-03-08T03:51:17;24.65;;;15.40;;
43337;SDS011;28933;52.492;13.434;2024-03-08T03:54:03;28.48;;;15.55;;
43337;SDS011;28933;52.492;13.434;2024-03-08T03:56:49;26.73;;;16.88;;
43337;SDS011;28933;52.492;13.434;2024-03-08T03:59:38;28.45;;;16.67;;
43337;SDS011;28933;52.492;13.434;2024-03-08T04:02:24;27.83;;;16.13;;
43337;SDS011;28933;52.492;13.434;2024-03-08T04:05:11;25.13;;;16.20;;
43337;SDS011;28933;52.492;13.434;2024-03-08T04:07:58;29.58;;;16.60;;
43337;SDS011;28933;52.492;13.434;2024-03-08T04:10:43;29.10;;;16.98;;
43337;SDS011;28933;52.492;13.434;2024-03-08T04:13:29;27.60;;;17.38;;
43337;SDS011;28933;52.492;13.434;2024-03-08T04:16:15;30.25;;;15.57;;
43337;SDS011;28933;52.492;13.434;2024-03-08T04:19:01;28.20;;;15.80;;
43337;SDS011;28933;52.492;13.434;2024-03-08T04:21:50;30.45;;;17.25;;
43337;SDS011;28933;52.492;13.434;2024-03-08T04:24:36;28.48;;;17.90;;
43337;SDS011;28933;52.492;13.434;2024-03-08T04:27:22;31.90;;;18.08;;
43337;SDS011;28933;52.492;13.434;2024-03-08T04:30:09;26.30;;;16.30;;
43337;SDS011;28933;52.492;13.434;2024-03-08T04:32:55;29.77;;;18.30;;
43337;SDS011;28933;52.492;13.434;2024-03-08T04:35:41;30.23;;;18.17;;
43337;SDS011;28933;52.492;13.434;2024-03-08T04:38:27;30.73;;;17.52;;
43337;SDS011;28933;52.492;13.434;2024-03-08T04:41:13;33.38;;;19.30;;
43337;SDS011;28933;52.492;13.434;2024-03-08T04:43:59;31.83;;;17.27;;
43337;SDS011;28933;52.492;13.434;2024-03-08T04:46:45;28.20;;;16.42;;
43337;SDS011;28933;52.492;13.434;2024-03-08T04:49:32;30.50;;;17.98;;
43337;SDS011;28933;52.492;13.434;2024-03-08T04:52:21;26.38;;;17.33;;
43337;SDS011;28933;52.492;13.434;2024-03-08T04:55:07;33.05;;;18.65;;
43337;SDS011;28933;52.492;13.434;2024-03-08T04:57:53;31.70;;;18.48;;
43337;SDS011;28933;52.492;13.434;2024-03-08T05:00:39;27.33;;;16.40;;
43337;SDS011;28933;52.492;13.434;2024-03-08T05:03:25;31.33;;;17.42;;
43337;SDS011;28933;52.492;13.434;2024-03-08T05:06:11;31.85;;;19.02;;
43337;SDS011;28933;52.492;13.434;2024-03-08T05:08:57;36.45;;;19.00;;
43337;SDS011;28933;52.492;13.434;2024-03-08T05:11:43;34.42;;;20.15;;
43337;SDS011;28933;52.492;13.434;2024-03-08T05:14:29;31.77;;;18.98;;
43337;SDS011;28933;52.492;13.434;2024-03-08T05:17:15;32.10;;;19.67;;
43337;SDS011;28933;52.492;13.434;2024-03-08T05:20:04;31.45;;;18.75;;
43337;SDS011;28933;52.492;13.434;2024-03-08T05:22:53;35.10;;;19.27;;
43337;SDS011;28933;52.492;13.434;2024-03-08T05:25:39;28.02;;;17.48;;
43337;SDS011;28933;52.492;13.434;2024-03-08T05:28:26;31.42;;;18.75;;
43337;SDS011;28933;52.492;13.434;2024-03-08T05:31:18;29.70;;;18.75;;
43337;SDS011;28933;52.492;13.434;2024-03-08T05:34:08;31.27;;;20.42;;
43337;SDS011;28933;52.492;13.434;2024-03-08T05:36:55;31.17;;;18.77;;
43337;SDS011;28933;52.492;13.434;2024-03-08T05:39:41;29.45;;;17.50;;
43337;SDS011;28933;52.492;13.434;2024-03-08T05:42:27;35.22;;;19.92;;
43337;SDS011;28933;52.492;13.434;2024-03-08T05:45:13;28.45;;;18.15;;
43337;SDS011;28933;52.492;13.434;2024-03-08T05:48:00;32.10;;;18.40;;
43337;SDS011;28933;52.492;13.434;2024-03-08T05:50:46;37.63;;;20.02;;
43337;SDS011;28933;52.492;13.434;2024-03-08T05:53:32;31.95;;;18.90;;
43337;SDS011;28933;52.492;13.434;2024-03-08T05:56:19;34.92;;;19.35;;
43337;SDS011;28933;52.492;13.434;2024-03-08T05:59:05;34.38;;;19.65;;
43337;SDS011;28933;52.492;13.434;2024-03-08T06:01:51;32.95;;;20.00;;
43337;SDS011;28933;52.492;13.434;2024-03-08T06:04:37;37.53;;;21.27;;
43337;SDS011;28933;52.492;13.434;2024-03-08T06:07:23;34.40;;;20.98;;
43337;SDS011;28933;52.492;13.434;2024-03-08T06:10:09;36.65;;;20.23;;
43337;SDS011;28933;52.492;13.434;2024-03-08T06:13:00;31.95;;;18.85;;
43337;SDS011;28933;52.492;13.434;2024-03-08T06:15:47;34.30;;;19.88;;
43337;SDS011;28933;52.492;13.434;2024-03-08T06:18:32;31.73;;;19.50;;
43337;SDS011;28933;52.492;13.434;2024-03-08T06:21:22;31.55;;;19.70;;
43337;SDS011;28933;52.492;13.434;2024-03-08T06:24:11;35.00;;;20.73;;
43337;SDS011;28933;52.492;13.434;2024-03-08T06:26:57;32.78;;;19.38;;
43337;SDS011;28933;52.492;13.434;2024-03-08T06:29:43;32.42;;;20.27;;
43337;SDS011;28933;52.492;13.434;2024-03-08T06:32:29;36.60;;;20.40;;
43337;SDS011;28933;52.492;13.434;2024-03-08T06:35:15;33.97;;;19.90;;
43337;SDS011;28933;52.492;13.434;2024-03-08T06:38:01;32.53;;;19.85;;
43337;SDS011;28933;52.492;13.434;2024-03-08T06:40:47;32.70;;;19.42;;
43337;SDS011;28933;52.492;13.434;2024-03-08T06:43:33;33.85;;;19.83;;
43337;SDS011;28933;52.492;13.434;2024-03-08T06:46:19;31.70;;;19.90;;
43337;SDS011;28933;52.492;13.434;2024-03-08T06:49:06;36.97;;;19.75;;
43337;SDS011;28933;52.492;13.434;2024-03-08T06:51:53;32.90;;;18.27;;
43337;SDS011;28933;52.492;13.434;2024-03-08T06:54:39;31.17;;;19.38;;
43337;SDS011;28933;52.492;13.434;2024-03-08T06:57:26;31.02;;;19.13;;
43337;SDS011;28933;52.492;13.434;2024-03-08T07:00:12;36.53;;;21.50;;
43337;SDS011;28933;52.492;13.434;2024-03-08T07:03:03;32.42;;;20.40;;
43337;SDS011;28933;52.492;13.434;2024-03-08T07:05:52;34.08;;;20.08;;
43337;SDS011;28933;52.492;13.434;2024-03-08T07:08:38;36.10;;;21.35;;
43337;SDS011;28933;52.492;13.434;2024-03-08T07:11:24;31.48;;;19.20;;
43337;SDS011;28933;52.492;13.434;2024-03-08T07:14:10;30.52;;;19.20;;
43337;SDS011;28933;52.492;13.434;2024-03-08T07:16:56;34.28;;;21.13;;
43337;SDS011;28933;52.492;13.434;2024-03-08T07:19:42;32.65;;;19.13;;
43337;SDS011;28933;52.492;13.434;2024-03-08T07:22:28;31.42;;;19.27;;
43337;SDS011;28933;52.492;13.434;2024-03-08T07:25:14;30.27;;;18.50;;
43337;SDS011;28933;52.492;13.434;2024-03-08T07:28:06;34.67;;;20.20;;
43337;SDS011;28933;52.492;13.434;2024-03-08T07:30:52;30.83;;;18.25;;
43337;SDS011;28933;52.492;13.434;2024-03-08T07:33:45;29.70;;;17.77;;
43337;SDS011;28933;52.492;13.434;2024-03-08T07:36:31;34.28;;;17.98;;
43337;SDS011;28933;52.492;13.434;2024-03-08T07:39:17;34.30;;;20.05;;
43337;SDS011;28933;52.492;13.434;2024-03-08T07:42:04;33.35;;;18.20;;
43337;SDS011;28933;52.492;13.434;2024-03-08T07:44:50;33.70;;;19.95;;
43337;SDS011;28933;52.492;13.434;2024-03-08T07:47:37;29.45;;;19.20;;
43337;SDS011;28933;52.492;13.434;2024-03-08T07:50:23;27.30;;;17.63;;
43337;SDS011;28933;52.492;13.434;2024-03-08T07:53:09;31.27;;;18.65;;
43337;SDS011;28933;52.492;13.434;2024-03-08T07:55:55;31.88;;;19.08;;
43337;SDS011;28933;52.492;13.434;2024-03-08T07:58:41;36.15;;;19.23;;
43337;SDS011;28933;52.492;13.434;2024-03-08T08:01:28;33.58;;;19.55;;
43337;SDS011;28933;52.492;13.434;2024-03-08T08:04:14;31.25;;;17.55;;
43337;SDS011;28933;52.492;13.434;2024-03-08T08:07:03;36.72;;;19.98;;
43337;SDS011;28933;52.492;13.434;2024-03-08T08:09:49;27.88;;;17.60;;
43337;SDS011;28933;52.492;13.434;2024-03-08T08:12:35;34.75;;;19.13;;
43337;SDS011;28933;52.492;13.434;2024-03-08T08:15:21;30.75;;;17.45;;
43337;SDS011;28933;52.492;13.434;2024-03-08T08:18:08;34.63;;;19.27;;
43337;SDS011;28933;52.492;13.434;2024-03-08T08:20:55;30.70;;;17.45;;
43337;SDS011;28933;52.492;13.434;2024-03-08T08:23:41;30.00;;;17.00;;
43337;SDS011;28933;52.492;13.434;2024-03-08T08:26:27;35.40;;;20.23;;
43337;SDS011;28933;52.492;13.434;2024-03-08T08:29:13;30.15;;;18.00;;
43337;SDS011;28933;52.492;13.434;2024-03-08T08:31:59;30.40;;;17.85;;
43337;SDS011;28933;52.492;13.434;2024-03-08T08:34:45;29.92;;;17.42;;
43337;SDS011;28933;52.492;13.434;2024-03-08T08:37:31;29.85;;;18.52;;
43337;SDS011;28933;52.492;13.434;2024-03-08T08:40:17;30.38;;;19.15;;
43337;SDS011;28933;52.492;13.434;2024-03-08T08:43:04;27.23;;;17.30;;
43337;SDS011;28933;52.492;13.434;2024-03-08T08:45:50;29.73;;;18.80;;
43337;SDS011;28933;52.492;13.434;2024-03-08T08:48:39;25.27;;;16.58;;
43337;SDS011;28933;52.492;13.434;2024-03-08T08:51:30;26.95;;;17.23;;
43337;SDS011;28933;52.492;13.434;2024-03-08T08:54:19;26.77;;;16.67;;
43337;SDS011;28933;52.492;13.434;2024-03-08T08:57:05;29.52;;;17.55;;
43337;SDS011;28933;52.492;13.434;2024-03-08T08:59:53;25.20;;;17.23;;
43337;SDS011;28933;52.492;13.434;2024-03-08T09:02:39;26.08;;;16.33;;
43337;SDS011;28933;52.492;13.434;2024-03-08T09:05:24;29.65;;;17.33;;
43337;SDS011;28933;52.492;13.434;2024-03-08T09:08:11;27.45;;;17.40;;
43337;SDS011;28933;52.492;13.434;2024-03-08T09:10:58;28.52;;;17.80;;
43337;SDS011;28933;52.492;13.434;2024-03-08T09:13:45;24.80;;;16.40;;
43337;SDS011;28933;52.492;13.434;2024-03-08T09:16:31;28.13;;;17.40;;
43337;SDS011;28933;52.492;13.434;2024-03-08T09:19:18;27.85;;;15.95;;
43337;SDS011;28933;52.492;13.434;2024-03-08T09:22:04;26.05;;;16.58;;
43337;SDS011;28933;52.492;13.434;2024-03-08T09:24:50;26.88;;;16.45;;
43337;SDS011;28933;52.492;13.434;2024-03-08T09:27:36;27.92;;;17.33;;
43337;SDS011;28933;52.492;13.434;2024-03-08T09:30:23;23.67;;;15.70;;
43337;SDS011;28933;52.492;13.434;2024-03-08T09:33:10;29.77;;;17.65;;
43337;SDS011;28933;52.492;13.434;2024-03-08T09:35:57;26.73;;;17.15;;
43337;SDS011;28933;52.492;13.434;2024-03-08T09:38:43;24.88;;;15.68;;
43337;SDS011;28933;52.492;13.434;2024-03-08T09:41:29;23.17;;;15.68;;
43337;SDS011;28933;52.492;13.434;2024-03-08T09:44:16;27.63;;;17.17;;
43337;SDS011;28933;52.492;13.434;2024-03-08T09:47:02;24.63;;;16.67;;
43337;SDS011;28933;52.492;13.434;2024-03-08T09:49:49;22.33;;;14.98;;
43337;SDS011;28933;52.492;13.434;2024-03-08T09:52:36;25.83;;;15.27;;
43337;SDS011;28933;52.492;13.434;2024-03-08T09:55:22;22.98;;;14.40;;
43337;SDS011;28933;52.492;13.434;2024-03-08T09:58:13;22.25;;;15.65;;
43337;SDS011;28933;52.492;13.434;2024-03-08T10:01:13;24.83;;;15.40;;
43337;SDS011;28933;52.492;13.434;2024-03-08T10:03:58;21.60;;;14.10;;
43337;SDS011;28933;52.492;13.434;2024-03-08T10:06:45;25.70;;;15.13;;
43337;SDS011;28933;52.492;13.434;2024-03-08T10:09:35;19.05;;;14.18;;
43337;SDS011;28933;52.492;13.434;2024-03-08T10:12:21;27.10;;;15.68;;
43337;SDS011;28933;52.492;13.434;2024-03-08T10:15:07;25.77;;;15.98;;
43337;SDS011;28933;52.492;13.434;2024-03-08T10:17:55;22.48;;;14.98;;
43337;SDS011;28933;52.492;13.434;2024-03-08T10:20:42;30.35;;;16.65;;
43337;SDS011;28933;52.492;13.434;2024-03-08T10:23:28;23.48;;;15.43;;
43337;SDS011;28933;52.492;13.434;2024-03-08T10:26:15;26.27;;;14.93;;
43337;SDS011;28933;52.492;13.434;2024-03-08T10:29:01;28.05;;;15.35;;
43337;SDS011;28933;52.492;13.434;2024-03-08T10:31:49;22.75;;;14.82;;
43337;SDS011;28933;52.492;13.434;2024-03-08T10:34:36;20.88;;;13.57;;
43337;SDS011;28933;52.492;13.434;2024-03-08T10:37:23;23.63;;;13.40;;
43337;SDS011;28933;52.492;13.434;2024-03-08T10:40:10;24.95;;;15.93;;
43337;SDS011;28933;52.492;13.434;2024-03-08T10:43:03;21.60;;;13.85;;
43337;SDS011;28933;52.492;13.434;2024-03-08T10:45:49;23.63;;;14.52;;
43337;SDS011;28933;52.492;13.434;2024-03-08T10:48:45;24.63;;;13.65;;
43337;SDS011;28933;52.492;13.434;2024-03-08T10:51:34;20.08;;;12.35;;
43337;SDS011;28933;52.492;13.434;2024-03-08T10:54:24;20.80;;;12.32;;
43337;SDS011;28933;52.492;13.434;2024-03-08T17:25:40;15.45;;;10.07;;
43337;SDS011;28933;52.492;13.434;2024-03-08T17:28:27;14.65;;;10.65;;
43337;SDS011;28933;52.492;13.434;2024-03-08T17:31:13;15.50;;;9.90;;
43337;SDS011;28933;52.492;13.434;2024-03-08T17:33:59;16.08;;;9.55;;
43337;SDS011;28933;52.492;13.434;2024-03-08T17:36:46;16.27;;;9.85;;
43337;SDS011;28933;52.492;13.434;2024-03-08T17:39:32;17.30;;;10.30;;
43337;SDS011;28933;52.492;13.434;2024-03-08T17:42:19;15.25;;;9.50;;
43337;SDS011;28933;52.492;13.434;2024-03-08T17:45:05;16.25;;;10.77;;
43337;SDS011;28933;52.492;13.434;2024-03-08T17:47:51;14.88;;;10.48;;
43337;SDS011;28933;52.492;13.434;2024-03-08T17:50:38;18.00;;;10.07;;
43337;SDS011;28933;52.492;13.434;2024-03-08T17:53:27;17.60;;;10.68;;
43337;SDS011;28933;52.492;13.434;2024-03-08T17:56:16;16.95;;;10.55;;
43337;SDS011;28933;52.492;13.434;2024-03-08T17:59:01;19.48;;;11.60;;
43337;SDS011;28933;52.492;13.434;2024-03-08T18:01:48;17.67;;;10.57;;
43337;SDS011;28933;52.492;13.434;2024-03-08T18:04:34;15.38;;;10.05;;
43337;SDS011;28933;52.492;13.434;2024-03-08T18:07:20;16.52;;;11.10;;
43337;SDS011;28933;52.492;13.434;2024-03-08T18:10:06;18.02;;;10.60;;
43337;SDS011;28933;52.492;13.434;2024-03-08T18:12:55;18.38;;;10.98;;
43337;SDS011;28933;52.492;13.434;2024-03-08T18:15:48;16.23;;;10.48;;
43337;SDS011;28933;52.492;13.434;2024-03-08T18:18:34;17.20;;;11.27;;
43337;SDS011;28933;52.492;13.434;2024-03-08T18:21:20;18.65;;;12.45;;
43337;SDS011;28933;52.492;13.434;2024-03-08T18:24:06;20.90;;;12.70;;
43337;SDS011;28933;52.492;13.434;2024-03-08T18:26:52;16.75;;;11.20;;
43337;SDS011;28933;52.492;13.434;2024-03-08T18:29:38;18.10;;;12.00;;
43337;SDS011;28933;52.492;13.434;2024-03-08T18:32:25;21.17;;;11.60;;
43337;SDS011;28933;52.492;13.434;2024-03-08T18:35:11;18.77;;;11.93;;
43337;SDS011;28933;52.492;13.434;2024-03-08T18:37:58;19.27;;;11.95;;
43337;SDS011;28933;52.492;13.434;2024-03-08T18:40:44;19.23;;;11.30;;
43337;SDS011;28933;52.492;13.434;2024-03-08T18:43:32;18.23;;;11.27;;
43337;SDS011;28933;52.492;13.434;2024-03-08T18:46:19;18.80;;;12.45;;
43337;SDS011;28933;52.492;13.434;2024-03-08T18:49:05;19.33;;;12.52;;
43337;SDS011;28933;52.492;13.434;2024-03-08T18:51:51;19.90;;;13.35;;
43337;SDS011;28933;52.492;13.434;2024-03-08T18:54:39;20.52;;;12.50;;
43337;SDS011;28933;52.492;13.434;2024-03-08T18:57:25;17.27;;;10.80;;
43337;SDS011;28933;52.492;13.434;2024-03-08T19:03:07;17.23;;;11.27;;
43337;SDS011;28933;52.492;13.434;2024-03-08T19:05:58;18.20;;;11.40;;
43337;SDS011;28933;52.492;13.434;2024-03-08T19:08:47;18.73;;;11.98;;
43337;SDS011;28933;52.492;13.434;2024-03-08T19:11:35;17.80;;;12.00;;
43337;SDS011;28933;52.492;13.434;2024-03-08T19:14:21;19.50;;;12.00;;
43337;SDS011;28933;52.492;13.434;2024-03-08T19:17:07;21.10;;;13.57;;
43337;SDS011;28933;52.492;13.434;2024-03-08T19:19:57;21.38;;;12.77;;
43337;SDS011;28933;52.492;13.434;2024-03-08T19:22:47;19.73;;;11.93;;
43337;SDS011;28933;52.492;13.434;2024-03-08T19:25:39;18.23;;;11.07;;
43337;SDS011;28933;52.492;13.434;2024-03-08T19:28:27;18.23;;;11.57;;
43337;SDS011;28933;52.492;13.434;2024-03-08T19:31:13;16.05;;;11.07;;
43337;SDS011;28933;52.492;13.434;2024-03-08T19:34:00;18.27;;;11.68;;
43337;SDS011;28933;52.492;13.434;2024-03-08T19:36:46;20.00;;;12.65;;
43337;SDS011;28933;52.492;13.434;2024-03-08T19:39:33;21.52;;;11.73;;
43337;SDS011;28933;52.492;13.434;2024-03-08T19:42:20;17.52;;;12.73;;
43337;SDS011;28933;52.492;13.434;2024-03-08T19:45:06;21.75;;;11.70;;
43337;SDS011;28933;52.492;13.434;2024-03-08T19:47:59;22.35;;;11.88;;
43337;SDS011;28933;52.492;13.434;2024-03-08T19:50:46;18.35;;;11.13;;
43337;SDS011;28933;52.492;13.434;2024-03-08T19:53:33;20.50;;;12.90;;
43337;SDS011;28933;52.492;13.434;2024-03-08T19:56:20;22.23;;;13.80;;
43337;SDS011;28933;52.492;13.434;2024-03-08T19:59:07;18.52;;;12.05;;
43337;SDS011;28933;52.492;13.434;2024-03-08T20:01:53;19.30;;;11.57;;
43337;SDS011;28933;52.492;13.434;2024-03-08T20:04:40;15.93;;;11.60;;
43337;SDS011;28933;52.492;13.434;2024-03-08T20:07:26;17.90;;;11.68;;
43337;SDS011;28933;52.492;13.434;2024-03-08T20:10:13;17.80;;;12.05;;
43337;SDS011;28933;52.492;13.434;2024-03-08T20:13:02;19.08;;;12.57;;
43337;SDS011;28933;52.492;13.434;2024-03-08T20:15:52;18.95;;;11.40;;
43337;SDS011;28933;52.492;13.434;2024-03-08T20:18:38;21.88;;;12.40;;
43337;SDS011;28933;52.492;13.434;2024-03-08T20:21:24;17.35;;;11.55;;
43337;SDS011;28933;52.492;13.434;2024-03-08T20:24:10;22.60;;;12.45;;
43337;SDS011;28933;52.492;13.434;2024-03-08T20:26:56;21.52;;;14.73;;
43337;SDS011;28933;52.492;13.434;2024-03-08T20:29:44;21.17;;;12.23;;
43337;SDS011;28933;52.492;13.434;2024-03-08T20:32:31;20.60;;;13.40;;
43337;SDS011;28933;52.492;13.434;2024-03-08T20:35:17;21.38;;;12.85;;
43337;SDS011;28933;52.492;13.434;2024-03-08T20:38:07;17.95;;;12.07;;
43337;SDS011;28933;52.492;13.434;2024-03-08T20:40:59;21.10;;;13.20;;
43337;SDS011;28933;52.492;13.434;2024-03-08T20:43:47;23.42;;;13.45;;
43337;SDS011;28933;52.492;13.434;2024-03-08T20:46:33;17.80;;;12.43;;
43337;SDS011;28933;52.492;13.434;2024-03-08T20:49:19;20.98;;;12.85;;
43337;SDS011;28933;52.492;13.434;2024-03-08T20:52:05;19.63;;;13.57;;
43337;SDS011;28933;52.492;13.434;2024-03-08T20:54:53;19.98;;;12.43;;
43337;SDS011;28933;52.492;13.434;2024-03-08T20:57:39;18.85;;;12.13;;
43337;SDS011;28933;52.492;13.434;2024-03-08T21:00:35;19.35;;;12.65;;
43337;SDS011;28933;52.492;13.434;2024-03-08T21:03:24;21.73;;;14.48;;
43337;SDS011;28933;52.492;13.434;2024-03-08T21:06:12;20.33;;;12.85;;
43337;SDS011;28933;52.492;13.434;2024-03-08T21:09:03;21.85;;;13.45;;
43337;SDS011;28933;52.492;13.434;2024-03-08T21:12:00;21.33;;;13.88;;
43337;SDS011;28933;52.492;13.434;2024-03-08T21:14:50;21.17;;;13.13;;
43337;SDS011;28933;52.492;13.434;2024-03-08T21:17:37;18.83;;;12.88;;
43337;SDS011;28933;52.492;13.434;2024-03-08T21:20:24;20.13;;;12.88;;
43337;SDS011;28933;52.492;13.434;2024-03-08T21:23:10;19.05;;;13.32;;
43337;SDS011;28933;52.492;13.434;2024-03-08T21:25:56;19.52;;;12.77;;
43337;SDS011;28933;52.492;13.434;2024-03-08T21:28:43;18.55;;;12.63;;
43337;SDS011;28933;52.492;13.434;2024-03-08T21:31:29;24.70;;;13.90;;
43337;SDS011;28933;52.492;13.434;2024-03-08T21:34:16;19.70;;;12.25;;
43337;SDS011;28933;52.492;13.434;2024-03-08T21:37:02;24.17;;;14.43;;
43337;SDS011;28933;52.492;13.434;2024-03-08T21:39:50;19.95;;;12.90;;
43337;SDS011;28933;52.492;13.434;2024-03-08T21:42:38;19.60;;;12.95;;
43337;SDS011;28933;52.492;13.434;2024-03-08T21:45:25;24.90;;;15.23;;
43337;SDS011;28933;52.492;13.434;2024-03-08T21:48:15;22.85;;;14.23;;
43337;SDS011;28933;52.492;13.434;2024-03-08T21:51:02;21.80;;;13.38;;
43337;SDS011;28933;52.492;13.434;2024-03-08T21:53:48;25.30;;;15.23;;
43337;SDS011;28933;52.492;13.434;2024-03-08T21:56:34;20.55;;;13.93;;
43337;SDS011;28933;52.492;13.434;2024-03-08T21:59:20;24.05;;;15.02;;
43337;SDS011;28933;52.492;13.434;2024-03-08T22:02:06;20.77;;;13.20;;
43337;SDS011;28933;52.492;13.434;2024-03-08T22:04:52;21.13;;;12.43;;
43337;SDS011;28933;52.492;13.434;2024-03-08T22:07:38;22.85;;;14.75;;
43337;SDS011;28933;52.492;13.434;2024-03-08T22:10:24;26.25;;;14.93;;
43337;SDS011;28933;52.492;13.434;2024-03-08T22:13:10;22.88;;;14.27;;
43337;SDS011;28933;52.492;13.434;2024-03-08T22:15:56;23.02;;;13.68;;
43337;SDS011;28933;52.492;13.434;2024-03-08T22:18:42;25.05;;;14.60;;
43337;SDS011;28933;52.492;13.434;2024-03-08T22:21:30;22.58;;;14.32;;
43337;SDS011;28933;52.492;13.434;2024-03-08T22:24:16;24.95;;;14.95;;
43337;SDS011;28933;52.492;13.434;2024-03-08T22:27:02;23.92;;;14.73;;
43337;SDS011;28933;52.492;13.434;2024-03-08T22:29:48;23.27;;;13.98;;
43337;SDS011;28933;52.492;13.434;2024-03-08T22:32:37;25.00;;;15.30;;
43337;SDS011;28933;52.492;13.434;2024-03-08T22:35:23;24.65;;;15.45;;